Windsor, Missouri
Current Conditions -  °F | °C
As of 8:28 AM on Saturday 25 Oct 2014 (Local Time) from KSZL Reporting Station
Haze Haze  
Wind Chill: 55°   Ceiling: Unl
Heat Index: 55°   Visibility: 3mi
Dew Point: 54°   Wind: 2mph
Humidity: 94%   Direction: 280°W
Pressure: 30.05"   Gusts: NA
Location:  38.53°N, 93.52°W
Report Text: KSZL 251328Z AUTO 28002KT 3SM BR CLR 13/12 A3005 RMK AO2
Loading
Personal Weather Stations






























Interactive Weather Map New forecast layout! Learn more

10-Day Weather Forecast

Advertisements
Track Severe Weather on mobile